Springtown, Texas
Current Conditions -  °F | °C
As of 2:55 PM on Sunday 23 Nov 2014 (Local Time) from KXBP Reporting Station
Clear Clear  
Wind Chill: 74°   Ceiling: Unl
Heat Index: 74°   Visibility: 10mi
Dew Point: 40°   Wind: 23mph
Humidity: 29%   Direction: 270°W
Pressure: 29.44"   Gusts: 32mph
Location:  32.97°N, 97.68°W
Report Text: KXBP 232055Z AUTO 27020G28KT 10SM CLR 24/04 A2944 RMK AO2 T02350043
Loading
Personal Weather Stations






























Interactive Weather Map New forecast layout! Learn more

10-Day Weather Forecast

Advertisements
Track Severe Weather on mobile